首页
METAR-TAF:

METAR-TAF

机场 :

塔那那利佛/伊瓦图国际机场

塔那那利佛, 马达加斯加

纬度: 18-48S, 经度: 047-29E, 海拔: 1279米

当前天气观测

该预报发布于1小时和20分钟前的13:00 UTC
风速12节,风向东南,在之间变化
温度 21°C
湿度 60%
气压 1022 hPa
能见度10公里或以上
少量云层高于2000英尺
散云层高于2300英尺

METAR: FMMI 181300Z 13012KT 100V180 9999 FEW020 SCT023 21/13 Q1022 NOSIG

时间: 17:20 (14:20 UTC)

预报

该预报发布于3小时和20分钟前的11:00 UTC
预报有效从18日的 12点(UTC)到 19日的 18点(UTC)
风速10节,风向东南
能见度10公里或以上
少量云层高于2000英尺
多云层高于2300英尺
成为
从 19日的 08点(UTC)到 19日的 10点(UTC)
风速10节,风向

TAF: FMMI 181100Z 1812/1918 14010KT 9999 FEW020 BKN023 BECMG 1908/1910 08010KT

超过4000个机场的气象观测和天气预报(METAR&TAF报告)。

可查询的气象台以黄色和红色小点在地图上表示。

将鼠标移到小点上方,可查看气象台名称。

然后点击查看天气观测和预报。

如需切换地图:点击带黑十字的绿色按钮放大地图;点击带横线的绿色按钮缩小地图;或者点击绿色箭头查看邻近地区的地图。


METAR-TAF: